Nearby METAR Reports

 

KBFI - Seattle/Boeing, Washington, USA
Distance from station: S 4mi, 7km
Updated: 2019-06-25 00:53
Clear
Clear
 Wind from varies
Wind: varies 3 mph , 6 km/h
Temperature: 57°F , 14°C
Dew Point: 46°F , 8°C
Humidity: 67%
Barometer: 29.92 inHg , 1013.2 hPa
Clouds: Clear
Visibility: 10 miles , 16 km
2019/06/25 07:53 KBFI 250753Z VRB03KT 10SM CLR 14/08 A2992 RMK AO2 SLP131 T01390083 402110117
KRNT - Renton, Washington, USA
Distance from station: SSE 9mi, 14km
Updated: 2019-06-25 00:53
Haze, Clear
Haze, Clear
 Wind from NNW
Wind: NNW 12 mph , 19 km/h
Temperature: 59°F , 15°C
Dew Point: 50°F , 10°C
Humidity: 72%
Barometer: 29.91 inHg , 1012.9 hPa
Summary: Haze
Clouds: Clear
Visibility: 2 miles , 3 km
2019/06/25 07:53 KRNT 250753Z AUTO 34010KT 2SM HZ CLR 15/10 A2991 RMK AO2 SLP134 T01500100 402170117
 
KSEA - Seattle/Metro, Washington, USA
Distance from station: S 11mi, 18km
Updated: 2019-06-25 00:53
Few Clouds
Few Clouds
 Wind from N
Wind: N 8 mph , 13 km/h
Temperature: 55°F , 13°C
Dew Point: 48°F , 9°C
Humidity: 77%
Barometer: 29.92 inHg , 1013.2 hPa
Clouds: Few Clouds
Visibility: 10 miles , 16 km
Cloud details: Few Clouds 25000 ft
2019/06/25 07:53 KSEA 250753Z 01007KT 10SM FEW250 13/09 A2992 RMK AO2 SLP136 T01330089 402170111
KPAE - Everett, Washington, USA
Distance from station: N 21mi, 34km
Updated: 2019-06-25 00:53
Clear
Clear
 Wind from varies
Wind: varies 5 mph , 7 km/h
Temperature: 52°F , 11°C
Dew Point: 46°F , 8°C
Humidity: 82%
Barometer: 29.93 inHg , 1013.5 hPa
Clouds: Clear
Visibility: 10 miles , 16 km
2019/06/25 07:53 KPAE 250753Z VRB04KT 10SM CLR 11/08 A2993 RMK AO2 SLP136 T01060083 401940106
 
KPWT - Bremerton Ntnl, Washington, USA
Distance from station: WSW 22mi, 35km
Updated: 2019-06-25 00:56
Clear
Clear
 Wind from NE
Wind: NE 7 mph , 11 km/h
Temperature: 54°F , 12°C
Dew Point: 46°F , 8°C
Humidity: 77%
Barometer: 29.92 inHg , 1013.2 hPa
Clouds: Clear
Visibility: 10 miles , 16 km
2019/06/25 07:56 KPWT 250756Z AUTO 05006KT 10SM CLR 12/08 A2992 RMK AO2 SLP150 T01170078 402000106
KTIW - Tacoma, Washington, USA
Distance from station: SSW 27mi, 43km
Updated: 2019-06-25 00:53
Clear
Clear
 Wind from NNE
Wind: NNE 7 mph , 11 km/h
Temperature: 54°F , 12°C
Dew Point: 46°F , 8°C
Humidity: 77%
Barometer: 29.92 inHg , 1013.2 hPa
Clouds: Clear
Visibility: 10 miles , 16 km
2019/06/25 07:53 KTIW 250753Z AUTO 02006KT 10SM CLR 12/08 A2992 RMK AO2 SLP130 T01220078 401940106
 
KTCM - Tacoma/Mc Chord, Washington, USA
Distance from station: S 35mi, 56km
Updated: 2019-06-25 00:58
Mist, Clear
Mist, Clear
 Wind from calm
Wind: Calm
Temperature: 54°F , 12°C
Dew Point: 52°F , 11°C
Humidity: 94%
Barometer: 29.92 inHg , 1013.2 hPa
Summary: Mist
Clouds: Clear
Visibility: 10 miles , 16 km
2019/06/25 07:58 KTCM 250758Z AUTO 00000KT 10SM BR CLR 12/11 A2992 RMK AO2 SLP135 T01240105 402140098 $
KPLU - Puyallup/Thun, Washington, USA
Distance from station: S 35mi, 57km
Updated: 2019-06-25 00:55
Clear
Clear
 Wind from calm
Wind: Calm
Temperature: 48°F , 9°C
Dew Point: 48°F , 9°C
Humidity: 100%
Barometer: 29.92 inHg , 1013.2 hPa
Clouds: Clear
Visibility: 10 miles , 16 km
2019/06/25 07:55 KPLU 250755Z AUTO 00000KT 10SM CLR 09/09 A2992 RMK AO2
 
K0S9 - Port Townsend, Washington, USA
Distance from station: NW 38mi, 62km
Updated: 2019-06-25 00:55
Clear
Clear
 Wind from calm
Wind: Calm
Temperature: 46°F , 8°C
Dew Point: 43°F , 6°C
Humidity: 87%
Barometer: 29.93 inHg , 1013.5 hPa
Clouds: Clear
Visibility: 10 miles , 16 km
2019/06/25 07:55 K0S9 250755Z AUTO 00000KT 10SM CLR 08/06 A2993 RMK AO2
KAWO - Arlington Muni, Washington, USA
Distance from station: N 39mi, 63km
Updated: 2019-06-25 00:56
Clear
Clear
 Wind from calm
Wind: Calm
Temperature: 50°F , 10°C
Dew Point: 46°F , 8°C
Humidity: 88%
Barometer: 29.93 inHg , 1013.5 hPa
Clouds: Clear
Visibility: 10 miles , 16 km
2019/06/25 07:56 KAWO 250756Z AUTO 00000KT 10SM CLR 10/08 A2993 RMK AO2 SLP140 T01000083 402060100
 
KGRF - Fort Lewis/Gray, Washington, USA
Distance from station: SSW 39mi, 64km
Updated: 2019-06-25 00:58
Clear
Clear
 Wind from calm
Wind: Calm
Temperature: 55°F , 13°C
Dew Point: 50°F , 10°C
Humidity: 82%
Barometer: 29.91 inHg , 1012.9 hPa
Clouds: Clear
Visibility: 10 miles , 16 km
2019/06/25 07:58 KGRF 250758Z AUTO 00000KT 10SM CLR 13/10 A2991 RMK AO2 SLP132 T01250104 402110104 $
KSHN - Shelton, Washington, USA
Distance from station: SW 46mi, 75km
Updated: 2019-06-25 00:53
Clear
Clear
 Wind from NW
Wind: NW 6 mph , 9 km/h
Temperature: 52°F , 11°C
Dew Point: 45°F , 7°C
Humidity: 77%
Barometer: 29.90 inHg , 1012.5 hPa
Clouds: Clear
Visibility: 10 miles , 16 km
2019/06/25 07:53 KSHN 250753Z AUTO 31005KT 10SM CLR 11/07 A2990 RMK AO2 SLP126 T01060067 402170100